Time;durP1;ratioP1;P1;durP2;ratioP2;P2;SDS_P1;SDS_P2;PMS_P1;PMS_P2;Temp;Humidity;BMP_temperature;BMP_pressure;BME280_temperature;BME280_humidity;BME280_pressure;Samples;Min_cycle;Max_cycle;Signal;HPM_P1;HPM_P2
2021/08/31 00:02:25;;;;;;;11.35;9.35;;;;;;;15.48;98.40;99927.58;1653510;85;26816;-79
2021/08/31 00:04:52;;;;;;;16.37;10.08;;;;;;;15.48;98.49;99931.11;1669297;85;25786;-79
2021/08/31 00:07:19;;;;;;;14.45;10.70;;;;;;;15.49;98.49;99927.34;1650899;85;25907;-80
2021/08/31 00:09:47;;;;;;;14.20;10.78;;;;;;;15.51;98.63;99931.97;1608701;85;27501;-79
2021/08/31 00:12:14;;;;;;;11.88;10.30;;;;;;;15.53;98.58;99925.81;1652373;85;26624;-80
2021/08/31 00:14:41;;;;;;;14.30;11.20;;;;;;;15.54;98.53;99927.47;1669185;85;25866;-79
2021/08/31 00:17:09;;;;;;;13.45;10.25;;;;;;;15.56;98.57;99933.45;1651305;85;25943;-79
2021/08/31 00:19:36;;;;;;;14.73;9.88;;;;;;;15.54;98.54;99931.52;1623101;85;25865;-79
2021/08/31 00:22:04;;;;;;;12.95;10.08;;;;;;;15.53;98.55;99937.12;1652001;85;27548;-79
2021/08/31 00:24:31;;;;;;;13.95;10.82;;;;;;;15.50;98.63;99933.56;1669994;85;25755;-79
2021/08/31 00:26:58;;;;;;;16.35;10.00;;;;;;;15.50;98.73;99937.09;1650999;84;25871;-79
2021/08/31 00:29:25;;;;;;;18.95;10.60;;;;;;;15.51;98.80;99936.55;1603062;85;26202;-79
2021/08/31 00:31:52;;;;;;;13.28;10.98;;;;;;;15.50;98.83;99937.61;1652131;85;25796;-79
2021/08/31 00:34:19;;;;;;;13.32;10.32;;;;;;;15.49;98.87;99935.44;1654543;85;27648;-80
2021/08/31 00:36:46;;;;;;;17.05;10.98;;;;;;;15.48;98.91;99937.86;1648727;85;26515;-79
2021/08/31 00:39:14;;;;;;;15.43;11.05;;;;;;;15.49;98.96;99931.39;1622547;84;25897;-79
2021/08/31 00:41:41;;;;;;;15.70;10.60;;;;;;;15.50;99.00;99929.52;1651169;85;25817;-79
2021/08/31 00:44:25;;;;;;;14.60;11.65;;;;;;;15.51;99.01;99929.80;1672122;84;25847;-79
2021/08/31 00:46:57;;;;;;;14.63;11.05;;;;;;;15.54;99.07;99929.34;1615315;87;27561;-79
2021/08/31 00:49:25;;;;;;;15.23;11.40;;;;;;;15.55;99.13;99927.74;1626771;85;26023;-78
2021/08/31 00:51:53;;;;;;;14.07;10.72;;;;;;;15.54;99.05;99928.81;1648629;85;26475;-79
2021/08/31 00:54:21;;;;;;;14.63;11.50;;;;;;;15.54;99.06;99927.47;1651716;84;26281;-80
2021/08/31 00:56:50;;;;;;;14.75;11.43;;;;;;;15.57;99.14;99924.28;1654369;84;25900;-79
2021/08/31 00:59:18;;;;;;;16.30;11.40;;;;;;;15.59;99.04;99924.86;1613774;86;27084;-79
2021/08/31 01:01:56;;;;;;;14.85;10.15;;;;;;;15.57;98.92;99914.83;1653866;84;25738;-79
2021/08/31 01:04:26;;;;;;;16.15;10.98;;;;;;;15.57;99.02;99916.18;1671077;84;26249;-80
2021/08/31 01:06:54;;;;;;;12.30;10.43;;;;;;;15.58;99.09;99912.95;1651428;84;25847;-79
2021/08/31 01:09:22;;;;;;;13.35;10.82;;;;;;;15.57;99.03;99917.53;1650569;84;25925;-80
2021/08/31 01:11:54;;;;;;;13.20;11.20;;;;;;;15.59;99.08;99913.27;1654640;84;28296;-79
2021/08/31 01:14:23;;;;;;;15.72;10.82;;;;;;;15.60;99.10;99915.72;1673489;84;25772;-80
2021/08/31 01:16:51;;;;;;;14.13;10.38;;;;;;;15.60;99.08;99917.07;1649035;85;26668;-80
2021/08/31 01:19:20;;;;;;;13.83;10.30;;;;;;;15.62;99.12;99912.78;1615950;86;26237;-79
2021/08/31 01:21:47;;;;;;;13.22;10.75;;;;;;;15.61;98.97;99913.84;1670056;84;26730;-79
2021/08/31 01:24:14;;;;;;;14.90;11.53;;;;;;;15.62;99.09;99914.12;1652296;84;28310;-79
2021/08/31 01:26:42;;;;;;;14.40;11.18;;;;;;;15.62;99.08;99914.95;1644402;85;26468;-79
2021/08/31 01:29:09;;;;;;;17.73;11.78;;;;;;;15.63;99.07;99909.03;1618878;86;25790;-79
2021/08/31 01:31:36;;;;;;;15.48;12.43;;;;;;;15.63;99.10;99909.83;1651488;85;26180;-79
2021/08/31 01:34:03;;;;;;;13.38;11.55;;;;;;;15.65;99.11;99906.92;1676388;84;25819;-79
2021/08/31 01:36:30;;;;;;;17.10;12.18;;;;;;;15.63;99.00;99908.48;1656004;84;28253;-79
2021/08/31 01:38:58;;;;;;;17.00;11.50;;;;;;;15.63;99.04;99907.69;1616586;86;25851;-79
2021/08/31 01:41:27;;;;;;;14.87;11.48;;;;;;;15.61;99.09;99905.20;1651668;85;25948;-79
2021/08/31 01:43:54;;;;;;;16.70;11.75;;;;;;;15.62;99.19;99908.20;1654254;85;26296;-80
2021/08/31 01:46:21;;;;;;;13.88;11.25;;;;;;;15.63;99.22;99909.83;1629667;85;26020;-79
2021/08/31 01:48:48;;;;;;;13.70;10.78;;;;;;;15.63;99.21;99909.03;1614306;86;28332;-79
2021/08/31 01:51:15;;;;;;;15.72;10.88;;;;;;;15.60;99.19;99904.92;1620310;86;25906;-80
2021/08/31 01:53:42;;;;;;;16.50;11.70;;;;;;;15.61;99.29;99902.50;1625474;86;25451;-79
2021/08/31 01:56:09;;;;;;;13.32;11.43;;;;;;;15.64;99.36;99899.34;1626012;86;25833;-79
2021/08/31 01:58:36;;;;;;;20.00;11.90;;;;;;;15.66;99.35;99893.17;1602123;86;26028;-79
2021/08/31 02:01:04;;;;;;;15.78;11.10;;;;;;;15.67;99.30;99892.13;1623006;86;28182;-80
2021/08/31 02:03:31;;;;;;;16.40;11.43;;;;;;;15.68;99.23;99895.11;1647575;86;26357;-80
2021/08/31 02:05:58;;;;;;;16.35;11.35;;;;;;;15.65;99.19;99891.55;1623658;86;25818;-79
2021/08/31 02:08:25;;;;;;;15.65;10.93;;;;;;;15.63;99.20;99888.23;1626582;86;25862;-79
2021/08/31 02:10:52;;;;;;;15.38;10.43;;;;;;;15.62;99.37;99893.36;1625278;86;25974;-80
2021/08/31 02:13:21;;;;;;;14.05;10.93;;;;;;;15.62;99.46;99893.87;1626690;86;56444;-80
2021/08/31 02:15:48;;;;;;;14.25;10.93;;;;;;;15.59;99.44;99887.63;1597958;88;25807;-79
2021/08/31 02:18:15;;;;;;;16.75;10.72;;;;;;;15.57;99.58;99887.83;1616745;84;25881;-79
2021/08/31 02:20:42;;;;;;;13.68;9.85;;;;;;;15.57;99.83;99889.73;1658166;84;26285;-80
2021/08/31 02:23:09;;;;;;;15.35;11.22;;;;;;;15.52;99.71;99886.39;1635054;84;26662;-79
2021/08/31 02:25:36;;;;;;;13.72;10.15;;;;;;;15.49;99.79;99883.32;1671096;85;28309;-79
2021/08/31 02:28:04;;;;;;;20.12;12.15;;;;;;;15.49;99.97;99877.41;1631651;85;26545;-78
2021/08/31 02:30:31;;;;;;;11.57;10.03;;;;;;;15.51;100.00;99882.55;1651171;85;25836;-79
2021/08/31 02:32:59;;;;;;;14.58;10.88;;;;;;;15.52;100.00;99879.64;1652142;84;26536;-79
2021/08/31 02:35:27;;;;;;;13.55;10.05;;;;;;;15.51;100.00;99883.39;1637456;87;26459;-79
2021/08/31 02:37:55;;;;;;;13.83;10.53;;;;;;;15.48;100.00;99883.88;1573313;87;28114;-80
2021/08/31 02:40:22;;;;;;;12.68;10.90;;;;;;;15.48;100.00;99880.34;1615165;87;25786;-80
2021/08/31 02:42:49;;;;;;;15.08;10.43;;;;;;;15.50;100.00;99880.41;1654540;85;25864;-79
2021/08/31 02:45:16;;;;;;;13.25;9.73;;;;;;;15.51;100.00;99876.64;1673815;84;25455;-78
2021/08/31 02:47:43;;;;;;;13.70;10.50;;;;;;;15.52;100.00;99878.30;1631894;84;25785;-79
2021/08/31 02:50:11;;;;;;;12.58;10.50;;;;;;;15.51;100.00;99873.94;1615975;86;28256;-79
2021/08/31 02:52:38;;;;;;;13.83;10.43;;;;;;;15.52;100.00;99873.42;1618708;87;25919;-80
2021/08/31 02:55:06;;;;;;;16.20;10.65;;;;;;;15.52;100.00;99872.89;1629382;85;25824;-80
2021/08/31 02:57:33;;;;;;;18.42;10.23;;;;;;;15.53;100.00;99875.05;1645479;84;25966;-79
2021/08/31 03:00:01;;;;;;;13.18;10.38;;;;;;;15.52;100.00;99871.55;1660515;84;26616;-79
2021/08/31 03:02:28;;;;;;;14.05;10.63;;;;;;;15.53;100.00;99870.47;1649051;84;27499;-79
2021/08/31 03:04:55;;;;;;;14.45;11.20;;;;;;;15.55;100.00;99869.70;1645924;84;25875;-79
2021/08/31 03:07:22;;;;;;;12.28;10.98;;;;;;;15.56;100.00;99871.36;1648909;84;25868;-80
2021/08/31 03:09:50;;;;;;;14.98;10.80;;;;;;;15.57;100.00;99872.19;1629327;85;25848;-79
2021/08/31 03:12:17;;;;;;;12.07;10.40;;;;;;;15.59;100.00;99870.08;1676667;84;25964;-79
2021/08/31 03:14:44;;;;;;;10.88;9.78;;;;;;;15.61;100.00;99861.20;1649111;85;27653;-79
2021/08/31 03:17:11;;;;;;;16.37;11.43;;;;;;;15.61;100.00;99864.70;1613440;85;26794;-79
2021/08/31 03:19:39;;;;;;;15.80;9.93;;;;;;;15.62;100.00;99865.02;1597294;86;25797;-79
2021/08/31 03:22:09;;;;;;;13.25;11.03;;;;;;;15.64;100.00;99860.19;1603697;88;25968;-78
2021/08/31 03:24:36;;;;;;;14.75;10.75;;;;;;;15.65;100.00;99859.15;1655485;84;25986;-79
2021/08/31 03:27:05;;;;;;;14.87;11.10;;;;;;;15.68;100.00;99862.70;1614607;86;27541;-79
2021/08/31 03:29:33;;;;;;;16.52;11.88;;;;;;;15.70;100.00;99862.45;1598698;86;26284;-79
2021/08/31 03:32:00;;;;;;;13.43;9.93;;;;;;;15.70;100.00;99863.81;1639702;86;25833;-79
2021/08/31 03:34:27;;;;;;;13.20;11.80;;;;;;;15.71;100.00;99862.77;1595403;86;25786;-79
2021/08/31 03:36:54;;;;;;;12.60;9.75;;;;;;;15.71;100.00;99861.41;1646382;85;26711;-79
2021/08/31 03:39:21;;;;;;;12.95;10.50;;;;;;;15.73;100.00;99861.48;1630295;84;27339;-79
2021/08/31 03:41:48;;;;;;;12.45;9.80;;;;;;;15.76;100.00;99860.19;1672164;84;25889;-80
2021/08/31 03:44:15;;;;;;;13.83;10.68;;;;;;;15.75;100.00;99859.88;1628496;84;25795;-79
2021/08/31 03:46:42;;;;;;;12.05;9.98;;;;;;;15.76;100.00;99865.59;1627057;85;25872;-79
2021/08/31 03:49:11;;;;;;;12.05;10.08;;;;;;;15.77;100.00;99865.34;1651723;85;25839;-79
2021/08/31 03:51:38;;;;;;;16.32;10.18;;;;;;;15.77;100.00;99868.04;1654313;84;28309;-80
2021/08/31 03:54:05;;;;;;;12.88;9.23;;;;;;;15.80;100.00;99865.40;1648440;85;26576;-80
2021/08/31 03:56:32;;;;;;;10.68;9.58;;;;;;;15.81;100.00;99864.32;1653176;85;26019;-80
2021/08/31 03:58:59;;;;;;;13.75;10.85;;;;;;;15.82;100.00;99868.68;1654879;84;25757;-79
2021/08/31 04:01:26;;;;;;;16.17;11.73;;;;;;;15.83;100.00;99867.60;1653160;84;25929;-79
2021/08/31 04:03:54;;;;;;;17.90;12.50;;;;;;;15.84;100.00;99868.73;1651459;85;27494;-79
2021/08/31 04:06:21;;;;;;;20.50;13.72;;;;;;;15.86;100.00;99873.89;1655343;84;26533;-79
2021/08/31 04:08:48;;;;;;;15.75;12.85;;;;;;;15.86;100.00;99873.37;1611863;84;26533;-79
2021/08/31 04:11:15;;;;;;;18.07;13.22;;;;;;;15.88;100.00;99878.52;1638741;84;26152;-79
2021/08/31 04:13:42;;;;;;;17.40;13.10;;;;;;;15.87;100.00;99883.62;1652991;84;25824;-80
2021/08/31 04:16:09;;;;;;;20.37;14.05;;;;;;;15.85;100.00;99875.77;1650748;85;27482;-80
2021/08/31 04:18:36;;;;;;;19.45;13.98;;;;;;;15.87;100.00;99879.05;1630345;85;25955;-79
2021/08/31 04:21:03;;;;;;;17.50;13.30;;;;;;;15.86;100.00;99882.82;1672809;84;25780;-79
2021/08/31 04:23:30;;;;;;;18.27;13.78;;;;;;;15.86;100.00;99888.22;1654379;85;26226;-80
2021/08/31 04:25:57;;;;;;;20.80;13.45;;;;;;;15.87;100.00;99894.42;1654638;85;25872;-80
2021/08/31 04:28:24;;;;;;;17.30;13.18;;;;;;;15.88;100.00;99901.48;1656884;84;28042;-79
2021/08/31 04:30:51;;;;;;;17.87;13.85;;;;;;;15.87;100.00;99896.60;1671141;85;25768;-79
2021/08/31 04:33:18;;;;;;;18.48;13.43;;;;;;;15.86;99.99;99899.02;1606855;84;25844;-80
2021/08/31 04:35:46;;;;;;;19.73;13.70;;;;;;;15.87;100.00;99899.83;1623570;85;25937;-80
2021/08/31 04:38:14;;;;;;;19.85;13.60;;;;;;;15.88;99.93;99900.13;1655381;84;25810;-79
2021/08/31 04:40:41;;;;;;;17.90;13.28;;;;;;;15.90;100.00;99903.41;1652609;84;27602;-79
2021/08/31 04:43:08;;;;;;;18.80;13.58;;;;;;;15.93;100.00;99898.89;1652780;85;25960;-80
2021/08/31 04:45:35;;;;;;;18.73;12.85;;;;;;;15.95;99.99;99906.23;1629977;85;25813;-79
2021/08/31 04:48:02;;;;;;;15.20;12.00;;;;;;;15.96;99.85;99902.45;1650876;84;26395;-79
2021/08/31 04:50:29;;;;;;;20.88;13.60;;;;;;;15.94;99.95;99912.16;1671260;84;25860;-79
2021/08/31 04:52:56;;;;;;;19.62;13.20;;;;;;;15.96;99.69;99914.61;1655055;85;27578;-79
2021/08/31 04:55:23;;;;;;;19.67;12.95;;;;;;;15.94;99.71;99914.86;1653045;84;25906;-79
2021/08/31 04:57:50;;;;;;;18.42;12.47;;;;;;;15.92;99.75;99918.33;1656508;85;25807;-79
2021/08/31 05:00:17;;;;;;;20.25;13.98;;;;;;;15.94;99.92;99918.08;1667803;84;25862;-79
2021/08/31 05:02:44;;;;;;;16.85;12.18;;;;;;;15.93;99.83;99917.80;1650975;85;25892;-79
2021/08/31 05:05:11;;;;;;;17.80;12.95;;;;;;;15.92;99.74;99921.03;1649909;85;27483;-80
2021/08/31 05:07:39;;;;;;;19.70;13.20;;;;;;;15.90;99.71;99912.86;1656379;84;26141;-79
2021/08/31 05:10:09;;;;;;;20.88;13.93;;;;;;;15.87;99.65;99916.86;1649631;85;25809;-80
2021/08/31 05:12:36;;;;;;;14.15;11.68;;;;;;;15.87;99.74;99910.63;1654309;84;26186;-79
2021/08/31 05:15:04;;;;;;;21.15;14.03;;;;;;;15.83;99.45;99914.34;1623394;85;25838;-79
2021/08/31 05:17:31;;;;;;;17.32;13.48;;;;;;;15.85;99.70;99906.82;1632573;84;27665;-80
2021/08/31 05:19:58;;;;;;;19.00;12.95;;;;;;;15.88;99.73;99906.36;1669947;84;26088;-78
2021/08/31 05:22:27;;;;;;;17.48;13.53;;;;;;;15.90;99.67;99907.46;1654072;84;25861;-80
2021/08/31 05:25:00;;;;;;;19.27;13.98;;;;;;;15.90;99.51;99896.66;1675283;84;26509;-79
2021/08/31 05:27:27;;;;;;;17.87;13.80;;;;;;;15.90;99.37;99897.48;1653282;84;25927;-80
2021/08/31 05:29:54;;;;;;;18.70;13.75;;;;;;;15.92;99.43;99899.42;1652517;84;27558;-80
2021/08/31 05:32:21;;;;;;;20.55;14.53;;;;;;;15.95;99.47;99905.67;1651495;85;25761;-79
2021/08/31 05:34:48;;;;;;;19.37;15.78;;;;;;;15.98;99.25;99904.39;1648923;85;25429;-79
2021/08/31 05:37:16;;;;;;;16.62;12.93;;;;;;;15.99;99.26;99905.52;1650357;85;26232;-79
2021/08/31 05:39:43;;;;;;;18.02;13.45;;;;;;;16.02;99.37;99906.90;1671438;84;25949;-79
2021/08/31 05:42:11;;;;;;;16.32;13.20;;;;;;;16.04;99.11;99906.12;1652365;85;27497;-79
2021/08/31 05:44:40;;;;;;;15.38;13.22;;;;;;;16.06;99.22;99908.89;1623465;85;25823;-79
2021/08/31 05:47:08;;;;;;;15.48;12.23;;;;;;;16.08;98.92;99913.52;1648539;84;26499;-79
2021/08/31 05:49:35;;;;;;;16.90;12.53;;;;;;;16.08;98.78;99920.83;1675989;84;26258;-80
2021/08/31 05:52:03;;;;;;;14.75;11.65;;;;;;;16.06;98.62;99925.09;1654141;84;26284;-79
2021/08/31 05:54:31;;;;;;;17.50;12.85;;;;;;;16.03;98.39;99927.47;1620076;85;27488;-79
2021/08/31 05:57:04;;;;;;;19.00;11.83;;;;;;;16.01;98.39;99918.78;1627117;85;26534;-80
2021/08/31 05:59:29;;;;;;;;;;;;;;;16.00;98.18;99917.95;1674529;84;25890;-79
2021/08/31 06:01:56;;;;;;;16.25;11.05;;;;;;;16.02;98.05;99916.35;1651267;84;26151;-80
2021/08/31 06:04:25;;;;;;;14.13;11.00;;;;;;;15.97;98.33;99917.06;1629696;85;25855;-79
2021/08/31 06:06:52;;;;;;;12.90;9.68;;;;;;;16.01;98.00;99915.55;1669325;84;28166;-80
2021/08/31 06:09:20;;;;;;;15.23;11.57;;;;;;;16.03;97.86;99915.31;1670624;84;25854;-80
2021/08/31 06:11:47;;;;;;;15.45;11.75;;;;;;;16.04;97.95;99926.39;1654714;84;25345;-79
2021/08/31 06:14:14;;;;;;;17.12;11.05;;;;;;;16.07;98.03;99925.92;1654621;84;25842;-79
2021/08/31 06:16:41;;;;;;;15.13;11.45;;;;;;;16.06;97.77;99921.05;1671209;84;25939;-79
2021/08/31 06:19:08;;;;;;;16.20;10.72;;;;;;;16.06;97.88;99920.22;1671187;84;27566;-79
2021/08/31 06:21:35;;;;;;;13.60;10.05;;;;;;;16.07;97.78;99916.47;1615132;86;26055;-79
2021/08/31 06:24:02;;;;;;;13.62;9.98;;;;;;;16.07;97.54;99913.77;1642461;87;25785;-79
2021/08/31 06:26:29;;;;;;;14.58;10.53;;;;;;;16.09;97.83;99914.34;1622740;86;26080;-79
2021/08/31 06:28:56;;;;;;;13.88;9.85;;;;;;;16.12;97.81;99912.53;1605121;85;25849;-79
2021/08/31 06:31:23;;;;;;;17.17;11.12;;;;;;;16.14;97.43;99915.81;1654620;85;27585;-78
2021/08/31 06:33:50;;;;;;;13.22;9.68;;;;;;;16.18;97.71;99914.27;1669939;85;25794;-79
2021/08/31 06:36:17;;;;;;;13.95;10.25;;;;;;;16.16;97.36;99911.81;1650784;85;26569;-80
2021/08/31 06:38:44;;;;;;;13.32;9.90;;;;;;;16.17;97.57;99913.44;1617485;86;25843;-79
2021/08/31 06:41:11;;;;;;;13.72;9.45;;;;;;;16.21;97.52;99913.77;1617761;87;25792;-79
2021/08/31 06:43:38;;;;;;;13.00;9.65;;;;;;;16.23;97.02;99904.09;1598488;87;27585;-80
2021/08/31 06:46:06;;;;;;;14.75;10.23;;;;;;;16.28;97.17;99905.01;1645612;85;25908;-79
2021/08/31 06:48:33;;;;;;;14.73;10.13;;;;;;;16.36;97.54;99910.58;1616561;86;25881;-79
2021/08/31 06:51:00;;;;;;;14.85;9.13;;;;;;;16.42;96.94;99911.79;1654724;84;25737;-79
2021/08/31 06:53:27;;;;;;;11.93;8.75;;;;;;;16.50;96.79;99919.54;1672061;84;26531;-79
2021/08/31 06:55:54;;;;;;;14.90;9.03;;;;;;;16.58;97.01;99917.80;1653328;85;28097;-79
2021/08/31 06:58:21;;;;;;;13.32;8.70;;;;;;;16.69;96.72;99910.69;1615657;86;25843;-79
2021/08/31 07:00:48;;;;;;;13.88;8.48;;;;;;;16.69;95.65;99910.69;1624110;87;26039;-79
2021/08/31 07:03:15;;;;;;;13.60;9.13;;;;;;;16.70;96.04;99921.80;1653137;85;26206;-79
2021/08/31 07:05:42;;;;;;;12.37;8.45;;;;;;;16.71;95.97;99917.50;1652939;84;26326;-79
2021/08/31 07:08:09;;;;;;;13.10;8.63;;;;;;;16.74;96.08;99920.25;1614612;87;28335;-79
2021/08/31 07:10:36;;;;;;;12.25;8.48;;;;;;;16.75;96.07;99924.06;1595419;87;25986;-79
2021/08/31 07:13:03;;;;;;;11.18;7.97;;;;;;;16.73;95.79;99934.83;1648278;86;25761;-79
2021/08/31 07:15:31;;;;;;;13.90;8.40;;;;;;;16.74;95.45;99932.42;1636366;86;25912;-79
2021/08/31 07:17:59;;;;;;;14.07;9.20;;;;;;;16.68;95.55;99924.73;1624447;86;25826;-80
2021/08/31 07:20:27;;;;;;;11.57;8.53;;;;;;;16.66;95.97;99922.80;1623017;87;27653;-79
2021/08/31 07:22:55;;;;;;;9.78;7.97;;;;;;;16.68;95.92;99926.08;1645634;86;25876;-79
2021/08/31 07:25:22;;;;;;;12.95;7.90;;;;;;;16.69;95.29;99922.85;1624168;86;26258;-79
2021/08/31 07:27:49;;;;;;;9.58;7.70;;;;;;;16.68;95.19;99908.50;1602150;86;26186;-79
2021/08/31 07:30:16;;;;;;;10.35;7.55;;;;;;;16.72;95.64;99909.66;1624560;86;25786;-79
2021/08/31 07:32:43;;;;;;;12.47;7.58;;;;;;;16.78;95.33;99909.23;1648989;86;28128;-79
2021/08/31 07:35:11;;;;;;;11.18;6.70;;;;;;;16.80;94.69;99914.69;1649990;86;26465;-79
2021/08/31 07:37:38;;;;;;;6.92;6.05;;;;;;;16.79;94.48;99918.45;1576990;86;26044;-79
2021/08/31 07:40:07;;;;;;;7.83;6.17;;;;;;;16.86;94.78;99919.64;1623843;86;25888;-79
2021/08/31 07:42:34;;;;;;;7.08;6.37;;;;;;;16.90;94.91;99916.22;1621316;86;26057;-79
2021/08/31 07:45:04;;;;;;;7.75;5.83;;;;;;;16.93;94.37;99912.20;1617414;86;27645;-79
2021/08/31 07:47:32;;;;;;;8.23;6.87;;;;;;;16.97;93.78;99922.83;1599686;86;25957;-79
2021/08/31 07:49:59;;;;;;;9.43;6.45;;;;;;;16.97;93.92;99925.53;1627515;86;25477;-80
2021/08/31 07:52:26;;;;;;;9.65;6.72;;;;;;;17.01;93.80;99925.84;1645427;86;26850;-78
2021/08/31 07:54:53;;;;;;;8.30;6.92;;;;;;;16.98;93.62;99920.39;1623864;86;25907;-79
2021/08/31 07:57:20;;;;;;;7.05;6.20;;;;;;;16.94;93.32;99921.42;1599291;87;27551;-79
2021/08/31 07:59:47;;;;;;;7.22;6.45;;;;;;;16.91;93.34;99932.72;1624590;86;26091;-80
2021/08/31 08:02:15;;;;;;;8.55;6.83;;;;;;;16.90;93.63;99937.86;1646367;86;26159;-79
2021/08/31 08:04:42;;;;;;;8.70;6.78;;;;;;;16.91;93.82;99930.56;1622803;86;25856;-79
2021/08/31 08:07:09;;;;;;;9.13;6.75;;;;;;;16.91;93.67;99928.66;1599345;86;25884;-79
2021/08/31 08:09:36;;;;;;;9.38;6.45;;;;;;;16.89;93.64;99936.76;1622624;86;28322;-80
2021/08/31 08:12:04;;;;;;;6.97;6.28;;;;;;;16.86;93.69;99940.77;1644022;86;25826;-79
2021/08/31 08:14:31;;;;;;;8.80;6.12;;;;;;;16.87;93.57;99944.30;1619368;86;25501;-80
2021/08/31 08:16:58;;;;;;;7.03;6.28;;;;;;;16.86;94.07;99956.16;1600926;86;25917;-80
2021/08/31 08:19:25;;;;;;;9.13;5.30;;;;;;;16.88;94.25;99954.87;1629303;86;26028;-80
2021/08/31 08:21:52;;;;;;;6.05;4.78;;;;;;;16.95;94.10;99952.84;1647756;86;27627;-80
2021/08/31 08:24:19;;;;;;;7.00;5.17;;;;;;;17.04;93.21;99960.55;1648630;86;25963;-79
2021/08/31 08:26:46;;;;;;;7.95;4.87;;;;;;;17.11;93.23;99955.81;1605627;86;25889;-80
2021/08/31 08:29:13;;;;;;;5.65;4.62;;;;;;;17.16;91.65;99962.64;1624731;87;25852;-79
2021/08/31 08:31:44;;;;;;;7.10;4.53;;;;;;;17.12;91.45;99959.61;1647974;86;25677;-80
2021/08/31 08:34:09;;;;;;;5.37;4.83;;;;;;;17.11;90.71;99961.22;1622816;86;27383;-80
2021/08/31 08:36:36;;;;;;;5.53;4.87;;;;;;;17.11;91.26;99957.16;1618323;86;25770;-81
2021/08/31 08:39:04;;;;;;;5.55;4.30;;;;;;;17.12;91.31;99957.44;1626273;86;25859;-79
2021/08/31 08:41:31;;;;;;;4.95;4.03;;;;;;;17.13;90.21;99955.03;1645249;86;25841;-80
2021/08/31 08:43:59;;;;;;;7.90;4.50;;;;;;;17.17;90.31;99952.91;1623982;85;26027;-80
2021/08/31 08:46:27;;;;;;;4.95;4.30;;;;;;;17.24;90.22;99955.46;1596748;86;28337;-80
2021/08/31 08:48:57;;;;;;;6.17;4.35;;;;;;;17.30;89.82;99955.30;1624717;86;25845;-80
2021/08/31 08:51:24;;;;;;;5.87;4.60;;;;;;;17.34;89.02;99945.63;1630420;84;25839;-80
2021/08/31 08:53:51;;;;;;;5.42;4.40;;;;;;;17.36;88.86;99936.75;1672761;84;25995;-80
2021/08/31 08:56:20;;;;;;;5.05;4.40;;;;;;;17.39;88.61;99945.71;1622997;85;25773;-79
2021/08/31 08:58:47;;;;;;;5.53;4.35;;;;;;;17.44;88.59;99943.62;1652301;84;27251;-80
2021/08/31 09:01:14;;;;;;;9.58;5.70;;;;;;;17.45;88.79;99943.37;1671463;84;25927;-79
2021/08/31 09:03:46;;;;;;;4.70;4.25;;;;;;;17.47;89.12;99955.33;1609954;85;25787;-79
2021/08/31 09:06:17;;;;;;;5.42;4.42;;;;;;;17.51;88.91;99950.53;1676561;84;25747;-80
2021/08/31 09:08:57;;;;;;;5.03;4.50;;;;;;;17.50;88.41;99951.61;1582288;87;25918;-80
2021/08/31 09:11:41;;;;;;;5.70;3.95;;;;;;;17.48;87.97;99948.83;1619027;87;27479;-80
2021/08/31 09:14:33;;;;;;;5.45;4.20;;;;;;;17.46;88.37;99952.31;1647738;85;25830;-80
2021/08/31 09:17:01;;;;;;;7.28;4.25;;;;;;;17.47;88.19;99945.84;1627819;85;25374;-80
2021/08/31 09:19:36;;;;;;;6.97;4.08;;;;;;;17.44;87.92;99955.28;1651591;85;26180;-79
2021/08/31 09:22:22;;;;;;;5.47;4.83;;;;;;;17.44;88.16;99963.93;1670959;84;25868;-79
2021/08/31 09:25:03;;;;;;;7.17;4.72;;;;;;;17.41;88.44;99969.30;1650198;85;27359;-79
2021/08/31 09:27:36;;;;;;;;;;;;;;;17.38;88.71;99965.75;1655785;85;25882;-80
2021/08/31 09:30:29;;;;;;;4.78;4.25;;;;;;;17.36;88.99;99969.23;1673464;84;25830;-79
2021/08/31 09:33:12;;;;;;;5.25;4.75;;;;;;;17.37;89.44;99975.45;1671321;84;26318;-80
2021/08/31 09:35:38;;;;;;;5.97;5.03;;;;;;;17.36;89.25;99963.82;1614457;86;25833;-80
2021/08/31 09:38:09;;;;;;;6.85;4.47;;;;;;;17.39;89.42;99953.83;1616617;87;27544;-80
2021/08/31 09:40:44;;;;;;;7.53;4.95;;;;;;;17.41;89.12;99965.77;1611138;88;25850;-79
2021/08/31 09:43:22;;;;;;;7.62;4.85;;;;;;;17.42;89.22;99974.19;1667594;85;25883;-79
2021/08/31 09:45:49;;;;;;;5.05;4.55;;;;;;;17.47;89.58;99972.92;1627856;84;26133;-80
2021/08/31 09:48:20;;;;;;;6.72;4.40;;;;;;;17.46;89.55;99980.75;1651984;85;25781;-80
2021/08/31 09:50:53;;;;;;;6.43;5.00;;;;;;;17.43;89.27;99981.23;1657157;84;27587;-79
2021/08/31 09:53:25;;;;;;;4.67;4.25;;;;;;;17.39;89.31;99983.61;1671013;84;25780;-79
2021/08/31 09:56:05;;;;;;;5.08;4.58;;;;;;;17.34;89.30;99987.58;1671163;84;25891;-79
2021/08/31 09:58:35;;;;;;;4.65;4.25;;;;;;;17.28;89.41;99981.00;1625276;85;26468;-80
2021/08/31 10:01:02;;;;;;;3.85;3.50;;;;;;;17.19;89.50;99986.00;1676191;84;25830;-79
2021/08/31 10:03:30;;;;;;;5.80;4.12;;;;;;;17.13;88.53;99977.48;1650389;85;27640;-80
2021/08/31 10:06:00;;;;;;;5.15;3.83;;;;;;;17.13;89.42;99991.01;1656869;84;25486;-80
2021/08/31 10:08:33;;;;;;;5.78;3.92;;;;;;;17.09;89.50;99998.50;1629500;85;25982;-79
2021/08/31 10:11:02;;;;;;;4.87;4.33;;;;;;;17.05;90.03;99990.59;1669710;84;25876;-80
2021/08/31 10:13:36;;;;;;;4.15;3.75;;;;;;;17.11;90.91;99982.31;1654245;85;25983;-80
2021/08/31 10:16:04;;;;;;;5.47;4.95;;;;;;;17.20;90.76;99986.27;1668037;84;27526;-79
2021/08/31 10:18:31;;;;;;;5.10;4.60;;;;;;;17.32;91.60;99985.66;1634506;84;25977;-80
2021/08/31 10:21:09;;;;;;;5.90;4.87;;;;;;;17.41;91.22;99990.12;1653371;85;25859;-81
2021/08/31 10:23:46;;;;;;;5.47;4.67;;;;;;;17.47;91.70;99989.97;1649267;84;26706;-80
2021/08/31 10:26:30;;;;;;;5.17;4.67;;;;;;;17.55;91.63;99986.91;1674531;84;25849;-79
2021/08/31 10:29:21;;;;;;;5.00;4.20;;;;;;;17.61;91.64;99990.50;1629413;85;28084;-79
2021/08/31 10:31:52;;;;;;;4.47;3.95;;;;;;;17.60;90.99;99981.55;1668031;85;26606;-81
2021/08/31 10:34:39;;;;;;;4.72;3.67;;;;;;;17.65;91.63;99984.88;1625596;85;25825;-80
2021/08/31 10:37:12;;;;;;;4.40;3.67;;;;;;;17.67;90.92;99987.63;1649869;84;25538;-78
2021/08/31 10:39:52;;;;;;;3.40;3.10;;;;;;;17.70;90.54;99983.61;1646404;85;26095;-79
2021/08/31 10:42:31;;;;;;;3.65;3.35;;;;;;;17.71;89.99;99984.70;1670734;84;27522;-79
2021/08/31 10:45:01;;;;;;;4.00;3.10;;;;;;;17.75;90.05;99980.16;1683105;84;25992;-80
2021/08/31 10:47:31;;;;;;;5.00;3.80;;;;;;;17.83;89.56;99975.66;1649897;85;25967;-80
2021/08/31 10:50:08;;;;;;;4.35;3.95;;;;;;;17.91;89.53;99974.70;1619184;85;25906;-80
2021/08/31 10:52:50;;;;;;;4.22;3.60;;;;;;;18.07;91.30;99977.11;1673379;84;26009;-80
2021/08/31 10:55:34;;;;;;;3.70;3.35;;;;;;;18.25;90.67;99978.14;1650466;85;27535;-78
2021/08/31 10:58:06;;;;;;;4.72;3.70;;;;;;;18.31;89.53;99979.84;1617528;87;25944;-78
2021/08/31 11:00:42;;;;;;;4.25;3.85;;;;;;;18.46;90.96;99980.89;1614830;87;25938;-79
2021/08/31 11:03:09;;;;;;;4.40;3.87;;;;;;;18.66;91.62;99967.28;1671092;84;26266;-79
2021/08/31 11:05:36;;;;;;;3.83;3.52;;;;;;;18.75;89.47;99971.19;1645978;85;26010;-78
2021/08/31 11:08:08;;;;;;;4.40;4.00;;;;;;;18.76;88.13;99976.34;1633559;84;27168;-78
2021/08/31 11:10:38;;;;;;;4.80;4.00;;;;;;;18.75;87.72;99973.37;1648346;85;25967;-79
2021/08/31 11:13:16;;;;;;;3.58;3.27;;;;;;;18.80;88.79;99978.00;1653127;85;25906;-78
2021/08/31 11:15:47;;;;;;;4.30;3.90;;;;;;;18.84;87.98;99983.23;1677500;84;26085;-78
2021/08/31 11:18:18;;;;;;;7.25;3.52;;;;;;;18.84;87.72;99987.30;1621234;85;25903;-78
2021/08/31 11:20:47;;;;;;;4.28;3.47;;;;;;;18.80;87.25;99986.97;1626276;85;29342;-78
2021/08/31 11:23:19;;;;;;;4.25;3.35;;;;;;;18.78;88.12;99993.72;1670850;85;25955;-79
2021/08/31 11:25:54;;;;;;;3.90;3.45;;;;;;;18.75;87.13;99996.96;1653325;85;25859;-79
2021/08/31 11:28:28;;;;;;;3.50;3.20;;;;;;;18.65;86.96;99992.78;1595286;88;26134;-78
2021/08/31 11:31:06;;;;;;;4.17;3.27;;;;;;;18.62;86.77;99996.81;1647469;85;25753;-79